sensor_id;sensor_type;location;lat;lon;timestamp;pressure;altitude;pressure_sealevel;temperature;humidity
54242;BME280;40156;51.080;17.082;2022-12-24T00:00:15;67126.84;;;6.49;nan
54242;BME280;40156;51.080;17.082;2022-12-24T00:03:03;67136.00;;;6.48;nan
54242;BME280;40156;51.080;17.082;2022-12-24T00:05:36;67129.88;;;6.47;nan
54242;BME280;40156;51.080;17.082;2022-12-24T00:08:05;67128.34;;;6.45;nan
54242;BME280;40156;51.080;17.082;2022-12-24T00:10:33;67120.72;;;6.54;nan
54242;BME280;40156;51.080;17.082;2022-12-24T00:13:01;67120.72;;;6.49;nan
54242;BME280;40156;51.080;17.082;2022-12-24T00:15:29;67111.56;;;6.54;nan
54242;BME280;40156;51.080;17.082;2022-12-24T00:17:57;67126.84;;;6.40;nan
54242;BME280;40156;51.080;17.082;2022-12-24T00:42:33;67139.03;;;6.39;nan
54242;BME280;40156;51.080;17.082;2022-12-24T00:45:01;67139.03;;;6.36;nan
54242;BME280;40156;51.080;17.082;2022-12-24T00:52:24;67140.56;;;6.29;nan
54242;BME280;40156;51.080;17.082;2022-12-24T01:48:00;67152.78;;;6.21;nan
54242;BME280;40156;51.080;17.082;2022-12-24T01:50:28;67148.19;;;6.21;nan
54242;BME280;40156;51.080;17.082;2022-12-24T01:52:57;67155.81;;;6.23;nan
54242;BME280;40156;51.080;17.082;2022-12-24T02:01:54;67154.31;;;6.16;nan
54242;BME280;40156;51.080;17.082;2022-12-24T02:06:57;67151.25;;;6.18;nan
54242;BME280;40156;51.080;17.082;2022-12-24T02:09:26;67151.25;;;6.18;nan
54242;BME280;40156;51.080;17.082;2022-12-24T02:11:55;67146.66;;;6.18;nan
54242;BME280;40156;51.080;17.082;2022-12-24T02:14:25;67143.63;;;6.23;nan
54242;BME280;40156;51.080;17.082;2022-12-24T02:19:56;67140.56;;;6.23;nan
54242;BME280;40156;51.080;17.082;2022-12-24T02:30:42;67132.94;;;6.31;nan
54242;BME280;40156;51.080;17.082;2022-12-24T02:36:37;67134.47;;;6.31;nan
54242;BME280;40156;51.080;17.082;2022-12-24T02:39:12;67129.88;;;6.35;nan
54242;BME280;40156;51.080;17.082;2022-12-24T02:41:48;67129.88;;;6.36;nan
54242;BME280;40156;51.080;17.082;2022-12-24T02:44:20;67132.94;;;6.34;nan
54242;BME280;40156;51.080;17.082;2022-12-24T02:46:49;67134.47;;;6.32;nan
54242;BME280;40156;51.080;17.082;2022-12-24T02:49:18;67131.41;;;6.37;nan
54242;BME280;40156;51.080;17.082;2022-12-24T02:51:46;67126.84;;;6.39;nan
54242;BME280;40156;51.080;17.082;2022-12-24T02:54:14;67131.41;;;6.38;nan
54242;BME280;40156;51.080;17.082;2022-12-24T02:57:26;67129.88;;;6.38;nan
54242;BME280;40156;51.080;17.082;2022-12-24T02:59:59;67126.84;;;6.44;nan
54242;BME280;40156;51.080;17.082;2022-12-24T03:08:12;67125.31;;;6.50;nan
54242;BME280;40156;51.080;17.082;2022-12-24T03:13:29;67120.72;;;6.54;nan
54242;BME280;40156;51.080;17.082;2022-12-24T03:15:58;67119.19;;;6.53;nan
54242;BME280;40156;51.080;17.082;2022-12-24T03:18:27;67116.16;;;6.55;nan
54242;BME280;40156;51.080;17.082;2022-12-24T03:21:02;67113.09;;;6.61;nan
54242;BME280;40156;51.080;17.082;2022-12-24T03:23:33;67113.09;;;6.59;nan
54242;BME280;40156;51.080;17.082;2022-12-24T03:26:05;67110.03;;;6.64;nan
54242;BME280;40156;51.080;17.082;2022-12-24T03:28:36;67102.41;;;6.70;nan
54242;BME280;40156;51.080;17.082;2022-12-24T03:31:07;67105.47;;;6.68;nan
54242;BME280;40156;51.080;17.082;2022-12-24T03:33:35;67107.00;;;6.70;nan
54242;BME280;40156;51.080;17.082;2022-12-24T03:36:04;67103.94;;;6.65;nan
54242;BME280;40156;51.080;17.082;2022-12-24T03:38:33;67110.03;;;6.65;nan
54242;BME280;40156;51.080;17.082;2022-12-24T03:41:01;67108.53;;;6.69;nan
54242;BME280;40156;51.080;17.082;2022-12-24T03:43:30;67107.00;;;6.72;nan
54242;BME280;40156;51.080;17.082;2022-12-24T03:46:03;67105.47;;;6.72;nan
54242;BME280;40156;51.080;17.082;2022-12-24T03:48:33;67105.47;;;6.70;nan
54242;BME280;40156;51.080;17.082;2022-12-24T03:51:02;67105.47;;;6.73;nan
54242;BME280;40156;51.080;17.082;2022-12-24T03:53:31;67105.47;;;6.74;nan
54242;BME280;40156;51.080;17.082;2022-12-24T03:55:59;67102.41;;;6.81;nan
54242;BME280;40156;51.080;17.082;2022-12-24T03:58:27;67096.31;;;6.85;nan
54242;BME280;40156;51.080;17.082;2022-12-24T04:00:55;67097.84;;;6.90;nan
54242;BME280;40156;51.080;17.082;2022-12-24T04:03:23;67102.41;;;6.89;nan
54242;BME280;40156;51.080;17.082;2022-12-24T04:06:08;67091.72;;;7.01;nan
54242;BME280;40156;51.080;17.082;2022-12-24T04:08:37;67084.09;;;7.08;nan
54242;BME280;40156;51.080;17.082;2022-12-24T04:11:09;67067.31;;;7.27;nan
54242;BME280;40156;51.080;17.082;2022-12-24T04:13:38;67052.06;;;7.43;nan
54242;BME280;40156;51.080;17.082;2022-12-24T04:16:08;67045.97;;;7.50;nan
54242;BME280;40156;51.080;17.082;2022-12-24T04:18:38;67036.81;;;7.65;nan
54242;BME280;40156;51.080;17.082;2022-12-24T04:21:06;67021.53;;;7.78;nan
54242;BME280;40156;51.080;17.082;2022-12-24T04:23:36;67020.00;;;7.79;nan
54242;BME280;40156;51.080;17.082;2022-12-24T04:26:06;67018.50;;;7.88;nan
54242;BME280;40156;51.080;17.082;2022-12-24T04:28:36;67010.84;;;7.90;nan
54242;BME280;40156;51.080;17.082;2022-12-24T04:31:07;67016.97;;;7.87;nan
54242;BME280;40156;51.080;17.082;2022-12-24T04:33:36;67020.00;;;7.86;nan
54242;BME280;40156;51.080;17.082;2022-12-24T04:36:06;67021.53;;;7.82;nan
54242;BME280;40156;51.080;17.082;2022-12-24T04:38:34;67018.50;;;7.88;nan
54242;BME280;40156;51.080;17.082;2022-12-24T04:41:23;67016.97;;;7.90;nan
54242;BME280;40156;51.080;17.082;2022-12-24T04:43:53;67004.75;;;8.03;nan
54242;BME280;40156;51.080;17.082;2022-12-24T04:46:23;67010.84;;;7.99;nan
54242;BME280;40156;51.080;17.082;2022-12-24T04:48:53;67009.34;;;8.01;nan
54242;BME280;40156;51.080;17.082;2022-12-24T04:51:22;67004.75;;;8.04;nan
54242;BME280;40156;51.080;17.082;2022-12-24T04:53:50;67001.69;;;8.07;nan
54242;BME280;40156;51.080;17.082;2022-12-24T04:56:21;67004.75;;;8.04;nan
54242;BME280;40156;51.080;17.082;2022-12-24T04:58:50;67010.84;;;8.02;nan
54242;BME280;40156;51.080;17.082;2022-12-24T05:01:23;67010.84;;;8.01;nan
54242;BME280;40156;51.080;17.082;2022-12-24T05:03:53;67007.81;;;8.02;nan
54242;BME280;40156;51.080;17.082;2022-12-24T05:06:27;67004.75;;;8.10;nan
54242;BME280;40156;51.080;17.082;2022-12-24T05:08:56;67013.91;;;8.03;nan
54242;BME280;40156;51.080;17.082;2022-12-24T05:11:25;67023.06;;;8.02;nan
54242;BME280;40156;51.080;17.082;2022-12-24T05:13:54;67018.50;;;8.11;nan
54242;BME280;40156;51.080;17.082;2022-12-24T05:16:22;67010.84;;;8.18;nan
54242;BME280;40156;51.080;17.082;2022-12-24T05:19:11;66997.13;;;8.26;nan
54242;BME280;40156;51.080;17.082;2022-12-24T05:25:12;66971.19;;;8.51;nan
54242;BME280;40156;51.080;17.082;2022-12-24T05:27:40;66974.25;;;8.53;nan
54242;BME280;40156;51.080;17.082;2022-12-24T05:30:13;66983.41;;;8.52;nan
54242;BME280;40156;51.080;17.082;2022-12-24T05:32:40;66994.06;;;8.40;nan
54242;BME280;40156;51.080;17.082;2022-12-24T05:35:09;66989.50;;;8.43;nan
54242;BME280;40156;51.080;17.082;2022-12-24T05:37:37;66994.06;;;8.44;nan
54242;BME280;40156;51.080;17.082;2022-12-24T05:40:05;66998.66;;;8.43;nan
54242;BME280;40156;51.080;17.082;2022-12-24T05:42:34;66998.66;;;8.45;nan
54242;BME280;40156;51.080;17.082;2022-12-24T05:45:20;67003.22;;;8.42;nan
54242;BME280;40156;51.080;17.082;2022-12-24T05:47:48;67000.19;;;8.46;nan
54242;BME280;40156;51.080;17.082;2022-12-24T05:50:24;67006.28;;;8.40;nan
54242;BME280;40156;51.080;17.082;2022-12-24T05:52:52;67001.69;;;8.46;nan
54242;BME280;40156;51.080;17.082;2022-12-24T05:55:20;67004.75;;;8.45;nan
54242;BME280;40156;51.080;17.082;2022-12-24T05:57:48;67013.91;;;8.44;nan
54242;BME280;40156;51.080;17.082;2022-12-24T06:00:17;67009.34;;;8.45;nan
54242;BME280;40156;51.080;17.082;2022-12-24T06:02:45;67012.38;;;8.43;nan
54242;BME280;40156;51.080;17.082;2022-12-24T06:05:13;67010.84;;;8.42;nan
54242;BME280;40156;51.080;17.082;2022-12-24T06:07:41;67015.44;;;8.41;nan
54242;BME280;40156;51.080;17.082;2022-12-24T06:10:09;67020.00;;;8.41;nan
54242;BME280;40156;51.080;17.082;2022-12-24T06:12:37;67015.44;;;8.49;nan
54242;BME280;40156;51.080;17.082;2022-12-24T06:15:06;67016.97;;;8.46;nan
54242;BME280;40156;51.080;17.082;2022-12-24T06:17:34;67015.44;;;8.44;nan
54242;BME280;40156;51.080;17.082;2022-12-24T06:20:03;67006.28;;;8.52;nan
54242;BME280;40156;51.080;17.082;2022-12-24T06:22:31;67010.84;;;8.57;nan
54242;BME280;40156;51.080;17.082;2022-12-24T06:24:59;67003.22;;;8.68;nan
54242;BME280;40156;51.080;17.082;2022-12-24T06:27:27;67007.81;;;8.66;nan
54242;BME280;40156;51.080;17.082;2022-12-24T06:29:55;67010.84;;;8.61;nan
54242;BME280;40156;51.080;17.082;2022-12-24T06:32:23;67001.69;;;8.81;nan
54242;BME280;40156;51.080;17.082;2022-12-24T06:34:51;66998.66;;;8.83;nan
54242;BME280;40156;51.080;17.082;2022-12-24T06:37:19;67000.19;;;8.80;nan
54242;BME280;40156;51.080;17.082;2022-12-24T06:39:47;67004.75;;;8.79;nan
54242;BME280;40156;51.080;17.082;2022-12-24T06:42:15;67004.75;;;8.79;nan
54242;BME280;40156;51.080;17.082;2022-12-24T06:44:44;67004.75;;;8.86;nan
54242;BME280;40156;51.080;17.082;2022-12-24T06:47:12;67001.69;;;8.91;nan
54242;BME280;40156;51.080;17.082;2022-12-24T06:49:40;67020.00;;;8.74;nan
54242;BME280;40156;51.080;17.082;2022-12-24T06:52:08;67021.53;;;8.72;nan
54242;BME280;40156;51.080;17.082;2022-12-24T06:54:36;67039.84;;;8.59;nan
54242;BME280;40156;51.080;17.082;2022-12-24T06:57:04;67045.94;;;8.51;nan
54242;BME280;40156;51.080;17.082;2022-12-24T06:59:32;67042.91;;;8.56;nan
54242;BME280;40156;51.080;17.082;2022-12-24T07:06:01;67055.09;;;8.50;nan
54242;BME280;40156;51.080;17.082;2022-12-24T07:08:30;67047.47;;;8.60;nan
54242;BME280;40156;51.080;17.082;2022-12-24T07:10:59;67053.59;;;8.64;nan
54242;BME280;40156;51.080;17.082;2022-12-24T07:13:27;67068.84;;;8.50;nan
54242;BME280;40156;51.080;17.082;2022-12-24T07:15:59;67065.78;;;8.54;nan
54242;BME280;40156;51.080;17.082;2022-12-24T07:18:29;67065.78;;;8.59;nan
54242;BME280;40156;51.080;17.082;2022-12-24T07:20:57;67073.41;;;8.54;nan
54242;BME280;40156;51.080;17.082;2022-12-24T07:23:25;67068.84;;;8.59;nan
54242;BME280;40156;51.080;17.082;2022-12-24T07:25:53;67082.56;;;8.57;nan
54242;BME280;40156;51.080;17.082;2022-12-24T07:28:21;67090.22;;;8.49;nan
54242;BME280;40156;51.080;17.082;2022-12-24T07:30:58;67081.06;;;8.68;nan
54242;BME280;40156;51.080;17.082;2022-12-24T07:33:26;67100.88;;;8.48;nan
54242;BME280;40156;51.080;17.082;2022-12-24T07:36:02;67099.34;;;8.56;nan
54242;BME280;40156;51.080;17.082;2022-12-24T07:38:31;67088.69;;;8.55;nan
54242;BME280;40156;51.080;17.082;2022-12-24T07:41:00;67096.31;;;8.58;nan
54242;BME280;40156;51.080;17.082;2022-12-24T07:43:28;67099.34;;;8.53;nan
54242;BME280;40156;51.080;17.082;2022-12-24T07:45:57;67099.34;;;8.59;nan
54242;BME280;40156;51.080;17.082;2022-12-24T07:48:26;67108.50;;;8.57;nan
54242;BME280;40156;51.080;17.082;2022-12-24T07:50:55;67108.50;;;8.55;nan
54242;BME280;40156;51.080;17.082;2022-12-24T07:56:56;67116.16;;;8.60;nan
54242;BME280;40156;51.080;17.082;2022-12-24T07:59:25;67128.34;;;8.57;nan
54242;BME280;40156;51.080;17.082;2022-12-24T08:01:53;67128.34;;;8.49;nan
54242;BME280;40156;51.080;17.082;2022-12-24T08:04:21;67139.03;;;8.47;nan
54242;BME280;40156;51.080;17.082;2022-12-24T08:06:49;67135.97;;;8.44;nan
54242;BME280;40156;51.080;17.082;2022-12-24T08:11:45;67137.50;;;8.45;nan
54242;BME280;40156;51.080;17.082;2022-12-24T08:14:18;67139.03;;;8.46;nan
54242;BME280;40156;51.080;17.082;2022-12-24T08:16:46;67149.72;;;8.39;nan
54242;BME280;40156;51.080;17.082;2022-12-24T08:19:15;67155.81;;;8.41;nan
54242;BME280;40156;51.080;17.082;2022-12-24T08:21:43;67161.91;;;8.38;nan
54242;BME280;40156;51.080;17.082;2022-12-24T08:24:11;67157.34;;;8.38;nan
54242;BME280;40156;51.080;17.082;2022-12-24T08:26:39;67158.88;;;8.44;nan
54242;BME280;40156;51.080;17.082;2022-12-24T08:29:07;67161.91;;;8.44;nan
54242;BME280;40156;51.080;17.082;2022-12-24T08:31:35;67178.72;;;8.32;nan
54242;BME280;40156;51.080;17.082;2022-12-24T08:34:06;67168.03;;;8.42;nan
54242;BME280;40156;51.080;17.082;2022-12-24T08:36:34;67178.72;;;8.37;nan
54242;BME280;40156;51.080;17.082;2022-12-24T08:39:03;67180.22;;;8.38;nan
54242;BME280;40156;51.080;17.082;2022-12-24T08:41:31;67178.72;;;8.40;nan
54242;BME280;40156;51.080;17.082;2022-12-24T08:43:59;67178.72;;;8.43;nan
54242;BME280;40156;51.080;17.082;2022-12-24T08:46:27;67183.28;;;8.44;nan
54242;BME280;40156;51.080;17.082;2022-12-24T08:48:56;67192.44;;;8.38;nan
54242;BME280;40156;51.080;17.082;2022-12-24T08:51:23;67195.50;;;8.36;nan
54242;BME280;40156;51.080;17.082;2022-12-24T08:57:36;67187.88;;;8.47;nan
54242;BME280;40156;51.080;17.082;2022-12-24T09:00:38;67201.59;;;8.34;nan
54242;BME280;40156;51.080;17.082;2022-12-24T09:03:13;67215.31;;;8.30;nan
54242;BME280;40156;51.080;17.082;2022-12-24T09:05:41;67227.53;;;8.15;nan
54242;BME280;40156;51.080;17.082;2022-12-24T09:08:09;67232.13;;;8.15;nan
54242;BME280;40156;51.080;17.082;2022-12-24T09:10:38;67221.44;;;8.20;nan
54242;BME280;40156;51.080;17.082;2022-12-24T09:13:06;67224.47;;;8.26;nan
54242;BME280;40156;51.080;17.082;2022-12-24T09:15:34;67216.84;;;8.28;nan
54242;BME280;40156;51.080;17.082;2022-12-24T09:18:02;67203.13;;;8.45;nan
54242;BME280;40156;51.080;17.082;2022-12-24T09:20:33;67209.22;;;8.38;nan
54242;BME280;40156;51.080;17.082;2022-12-24T09:23:01;67216.84;;;8.32;nan
54242;BME280;40156;51.080;17.082;2022-12-24T09:25:29;67219.91;;;8.35;nan
54242;BME280;40156;51.080;17.082;2022-12-24T09:27:57;67203.13;;;8.53;nan
54242;BME280;40156;51.080;17.082;2022-12-24T09:30:25;67212.28;;;8.44;nan
54242;BME280;40156;51.080;17.082;2022-12-24T09:32:53;67203.13;;;8.56;nan
54242;BME280;40156;51.080;17.082;2022-12-24T09:35:22;67213.81;;;8.49;nan
54242;BME280;40156;51.080;17.082;2022-12-24T09:37:49;67203.13;;;8.55;nan
54242;BME280;40156;51.080;17.082;2022-12-24T09:40:33;67210.75;;;8.56;nan
54242;BME280;40156;51.080;17.082;2022-12-24T09:43:19;67221.44;;;8.46;nan
54242;BME280;40156;51.080;17.082;2022-12-24T09:48:26;67233.63;;;8.47;nan
54242;BME280;40156;51.080;17.082;2022-12-24T09:51:03;67239.75;;;8.40;nan
54242;BME280;40156;51.080;17.082;2022-12-24T09:56:21;67235.16;;;8.48;nan
54242;BME280;40156;51.080;17.082;2022-12-24T09:58:58;67255.00;;;8.36;nan
54242;BME280;40156;51.080;17.082;2022-12-24T10:01:29;67229.06;;;8.55;nan
54242;BME280;40156;51.080;17.082;2022-12-24T10:04:01;67241.28;;;8.50;nan
54242;BME280;40156;51.080;17.082;2022-12-24T10:06:53;67247.38;;;8.43;nan
54242;BME280;40156;51.080;17.082;2022-12-24T10:19:20;67262.63;;;8.38;nan
54242;BME280;40156;51.080;17.082;2022-12-24T10:21:59;67264.16;;;8.43;nan
54242;BME280;40156;51.080;17.082;2022-12-24T10:24:41;67267.22;;;8.39;nan
54242;BME280;40156;51.080;17.082;2022-12-24T10:27:21;67285.53;;;8.19;nan
54242;BME280;40156;51.080;17.082;2022-12-24T10:29:58;67290.09;;;8.21;nan
54242;BME280;40156;51.080;17.082;2022-12-24T10:32:30;67284.00;;;8.30;nan
54242;BME280;40156;51.080;17.082;2022-12-24T10:37:29;67299.25;;;8.17;nan
54242;BME280;40156;51.080;17.082;2022-12-24T10:39:59;67312.97;;;8.08;nan
54242;BME280;40156;51.080;17.082;2022-12-24T10:42:36;67308.41;;;8.13;nan
54242;BME280;40156;51.080;17.082;2022-12-24T10:45:06;67311.47;;;8.14;nan
54242;BME280;40156;51.080;17.082;2022-12-24T10:47:36;67316.03;;;8.11;nan
54242;BME280;40156;51.080;17.082;2022-12-24T10:50:14;67189.47;;;8.09;0.00
54242;BME280;40156;51.080;17.082;2022-12-24T10:57:46;67341.97;;;7.93;nan
54242;BME280;40156;51.080;17.082;2022-12-24T11:00:23;67345.03;;;7.97;nan
54242;BME280;40156;51.080;17.082;2022-12-24T11:03:20;67348.09;;;7.87;nan
54242;BME280;40156;51.080;17.082;2022-12-24T11:08:31;67363.34;;;7.80;nan
54242;BME280;40156;51.080;17.082;2022-12-24T11:11:12;67358.75;;;7.84;nan
54242;BME280;40156;51.080;17.082;2022-12-24T11:13:44;67372.50;;;7.78;nan
54242;BME280;40156;51.080;17.082;2022-12-24T11:18:55;67369.44;;;7.83;nan
54242;BME280;40156;51.080;17.082;2022-12-24T11:24:07;67374.03;;;7.78;nan
54242;BME280;40156;51.080;17.082;2022-12-24T11:26:36;67358.75;;;7.89;nan
54242;BME280;40156;51.080;17.082;2022-12-24T11:31:44;67367.91;;;7.89;nan
54242;BME280;40156;51.080;17.082;2022-12-24T11:34:27;67364.88;;;7.91;nan
54242;BME280;40156;51.080;17.082;2022-12-24T11:37:08;67358.75;;;8.03;nan
54242;BME280;40156;51.080;17.082;2022-12-24T11:39:52;67349.59;;;8.14;nan
54242;BME280;40156;51.080;17.082;2022-12-24T11:42:35;67357.25;;;8.07;nan
54242;BME280;40156;51.080;17.082;2022-12-24T11:45:23;67366.38;;;8.01;nan
54242;BME280;40156;51.080;17.082;2022-12-24T11:47:52;67367.91;;;7.99;nan
54242;BME280;40156;51.080;17.082;2022-12-24T11:55:51;67361.81;;;8.09;nan
54242;BME280;40156;51.080;17.082;2022-12-24T12:04:20;67355.72;;;8.30;nan
54242;BME280;40156;51.080;17.082;2022-12-24T12:06:55;67361.81;;;8.30;nan
54242;BME280;40156;51.080;17.082;2022-12-24T12:09:40;67358.75;;;8.23;nan
54242;BME280;40156;51.080;17.082;2022-12-24T12:12:42;67351.13;;;8.36;nan
54242;BME280;40156;51.080;17.082;2022-12-24T12:17:55;67352.66;;;8.40;nan
54242;BME280;40156;51.080;17.082;2022-12-24T12:23:48;67331.28;;;8.64;nan
54242;BME280;40156;51.080;17.082;2022-12-24T12:25:58;67331.28;;;8.66;nan
54242;BME280;40156;51.080;17.082;2022-12-24T12:28:44;67322.13;;;8.84;nan
54242;BME280;40156;51.080;17.082;2022-12-24T12:31:20;67323.66;;;8.81;nan
54242;BME280;40156;51.080;17.082;2022-12-24T12:34:01;67338.94;;;8.72;nan
54242;BME280;40156;51.080;17.082;2022-12-24T12:36:35;67341.97;;;8.66;nan
54242;BME280;40156;51.080;17.082;2022-12-24T12:39:08;67334.34;;;8.72;nan
54242;BME280;40156;51.080;17.082;2022-12-24T12:58:36;67329.78;;;8.90;nan
54242;BME280;40156;51.080;17.082;2022-12-24T13:01:33;67338.94;;;8.84;nan
54242;BME280;40156;51.080;17.082;2022-12-24T13:21:25;67325.19;;;9.08;nan
54242;BME280;40156;51.080;17.082;2022-12-24T13:24:06;67358.75;;;8.81;nan
54242;BME280;40156;51.080;17.082;2022-12-24T13:26:40;67367.91;;;8.74;nan
54242;BME280;40156;51.080;17.082;2022-12-24T13:37:47;67395.38;;;8.50;nan
54242;BME280;40156;51.080;17.082;2022-12-24T13:40:16;67403.00;;;8.43;nan
54242;BME280;40156;51.080;17.082;2022-12-24T13:53:36;67377.06;;;8.82;nan
54242;BME280;40156;51.080;17.082;2022-12-24T13:56:08;67392.34;;;8.66;nan
54242;BME280;40156;51.080;17.082;2022-12-24T13:58:39;67393.84;;;8.62;nan
54242;BME280;40156;51.080;17.082;2022-12-24T14:01:10;67386.22;;;8.71;nan
54242;BME280;40156;51.080;17.082;2022-12-24T14:03:54;67383.19;;;8.72;nan
54242;BME280;40156;51.080;17.082;2022-12-24T14:10:06;67392.34;;;8.69;nan
54242;BME280;40156;51.080;17.082;2022-12-24T14:12:49;67375.53;;;8.88;nan
54242;BME280;40156;51.080;17.082;2022-12-24T14:18:37;67381.66;;;8.83;nan
54242;BME280;40156;51.080;17.082;2022-12-24T14:21:17;67375.53;;;8.89;nan
54242;BME280;40156;51.080;17.082;2022-12-24T14:23:58;67387.75;;;8.83;nan
54242;BME280;40156;51.080;17.082;2022-12-24T14:26:33;67399.97;;;8.70;nan
54242;BME280;40156;51.080;17.082;2022-12-24T14:29:14;67409.13;;;8.61;nan
54242;BME280;40156;51.080;17.082;2022-12-24T14:31:53;67422.84;;;8.51;nan
54242;BME280;40156;51.080;17.082;2022-12-24T14:34:21;67425.91;;;8.46;nan
54242;BME280;40156;51.080;17.082;2022-12-24T14:36:51;67435.06;;;8.40;nan
54242;BME280;40156;51.080;17.082;2022-12-24T14:39:29;67456.41;;;8.16;nan
54242;BME280;40156;51.080;17.082;2022-12-24T14:47:41;67476.25;;;8.02;nan
54242;BME280;40156;51.080;17.082;2022-12-24T14:55:47;67499.16;;;7.88;nan
54242;BME280;40156;51.080;17.082;2022-12-24T14:58:27;67518.97;;;7.75;nan
54242;BME280;40156;51.080;17.082;2022-12-24T15:01:47;67523.56;;;7.71;nan
54242;BME280;40156;51.080;17.082;2022-12-24T15:11:47;67547.97;;;7.53;nan
54242;BME280;40156;51.080;17.082;2022-12-24T15:59:56;67584.59;;;7.43;nan
54242;BME280;40156;51.080;17.082;2022-12-24T16:25:25;67598.31;;;7.45;nan
54242;BME280;40156;51.080;17.082;2022-12-24T16:27:53;67584.59;;;7.64;nan
54242;BME280;40156;51.080;17.082;2022-12-24T16:30:26;67593.75;;;7.57;nan
54242;BME280;40156;51.080;17.082;2022-12-24T16:32:55;67575.44;;;7.84;nan
54242;BME280;40156;51.080;17.082;2022-12-24T16:35:27;67569.34;;;7.88;nan
54242;BME280;40156;51.080;17.082;2022-12-24T16:37:55;67581.53;;;7.78;nan
54242;BME280;40156;51.080;17.082;2022-12-24T16:40:23;67587.66;;;7.81;nan
54242;BME280;40156;51.080;17.082;2022-12-24T16:42:55;67590.69;;;7.81;nan
54242;BME280;40156;51.080;17.082;2022-12-24T16:45:24;67587.66;;;7.83;nan
54242;BME280;40156;51.080;17.082;2022-12-24T16:47:52;67596.81;;;7.75;nan
54242;BME280;40156;51.080;17.082;2022-12-24T16:50:23;67599.84;;;7.70;nan
54242;BME280;40156;51.080;17.082;2022-12-24T16:52:51;67604.44;;;7.65;nan
54242;BME280;40156;51.080;17.082;2022-12-24T16:55:19;67612.06;;;7.65;nan
54242;BME280;40156;51.080;17.082;2022-12-24T16:57:48;67610.53;;;7.61;nan
54242;BME280;40156;51.080;17.082;2022-12-24T17:00:18;67619.69;;;7.58;nan
54242;BME280;40156;51.080;17.082;2022-12-24T18:09:27;67711.25;;;6.96;nan
54242;BME280;40156;51.080;17.082;2022-12-24T18:11:56;67709.72;;;7.04;nan
54242;BME280;40156;51.080;17.082;2022-12-24T18:14:24;67706.66;;;7.12;nan
54242;BME280;40156;51.080;17.082;2022-12-24T18:16:52;67715.81;;;7.09;nan
54242;BME280;40156;51.080;17.082;2022-12-24T18:19:20;67720.41;;;7.08;nan
54242;BME280;40156;51.080;17.082;2022-12-24T18:21:48;67721.94;;;7.11;nan
54242;BME280;40156;51.080;17.082;2022-12-24T18:24:16;67729.56;;;7.06;nan
54242;BME280;40156;51.080;17.082;2022-12-24T18:26:45;67734.13;;;7.02;nan
54242;BME280;40156;51.080;17.082;2022-12-24T18:29:15;67729.56;;;7.02;nan
54242;BME280;40156;51.080;17.082;2022-12-24T18:31:43;67740.25;;;6.94;nan
54242;BME280;40156;51.080;17.082;2022-12-24T18:36:42;67735.66;;;6.88;nan
54242;BME280;40156;51.080;17.082;2022-12-24T18:39:10;67731.09;;;6.94;nan
54242;BME280;40156;51.080;17.082;2022-12-24T18:41:38;67728.03;;;6.93;nan
54242;BME280;40156;51.080;17.082;2022-12-24T18:49:02;67734.13;;;6.97;nan
54242;BME280;40156;51.080;17.082;2022-12-24T18:51:33;67740.25;;;6.94;nan
54242;BME280;40156;51.080;17.082;2022-12-24T18:54:03;67734.13;;;6.98;nan
54242;BME280;40156;51.080;17.082;2022-12-24T18:56:31;67731.09;;;7.02;nan
54242;BME280;40156;51.080;17.082;2022-12-24T18:59:01;67735.66;;;7.03;nan
54242;BME280;40156;51.080;17.082;2022-12-24T19:01:31;67737.19;;;7.00;nan
54242;BME280;40156;51.080;17.082;2022-12-24T19:04:00;67740.25;;;7.00;nan
54242;BME280;40156;51.080;17.082;2022-12-24T19:06:28;67737.19;;;7.06;nan
54242;BME280;40156;51.080;17.082;2022-12-24T19:08:56;67732.59;;;7.06;nan
54242;BME280;40156;51.080;17.082;2022-12-24T19:11:29;67743.28;;;6.98;nan
54242;BME280;40156;51.080;17.082;2022-12-24T19:13:58;67752.44;;;6.95;nan
54242;BME280;40156;51.080;17.082;2022-12-24T20:28:31;67892.84;;;5.92;nan
54242;BME280;40156;51.080;17.082;2022-12-24T20:33:27;67903.50;;;5.86;nan
54242;BME280;40156;51.080;17.082;2022-12-24T20:36:00;67914.19;;;5.74;nan
54242;BME280;40156;51.080;17.082;2022-12-24T20:38:28;67917.25;;;5.72;nan
54242;BME280;40156;51.080;17.082;2022-12-24T20:40:56;67924.88;;;5.64;nan
54242;BME280;40156;51.080;17.082;2022-12-24T20:43:24;67926.41;;;5.64;nan
54242;BME280;40156;51.080;17.082;2022-12-24T20:45:55;67929.47;;;5.65;nan
54242;BME280;40156;51.080;17.082;2022-12-24T20:48:23;67926.41;;;5.67;nan
54242;BME280;40156;51.080;17.082;2022-12-24T20:50:52;67920.31;;;5.70;nan
54242;BME280;40156;51.080;17.082;2022-12-24T20:53:19;67927.94;;;5.63;nan
54242;BME280;40156;51.080;17.082;2022-12-24T20:55:52;67930.97;;;5.62;nan
54242;BME280;40156;51.080;17.082;2022-12-24T20:58:20;67930.97;;;5.58;nan
54242;BME280;40156;51.080;17.082;2022-12-24T21:00:48;67934.03;;;5.56;nan
54242;BME280;40156;51.080;17.082;2022-12-24T21:03:17;67937.09;;;5.56;nan
54242;BME280;40156;51.080;17.082;2022-12-24T21:05:45;67940.13;;;5.52;nan
54242;BME280;40156;51.080;17.082;2022-12-24T21:08:13;67947.75;;;5.49;nan
54242;BME280;40156;51.080;17.082;2022-12-24T21:10:42;67946.25;;;5.48;nan
54242;BME280;40156;51.080;17.082;2022-12-24T21:13:12;67956.91;;;5.38;nan
54242;BME280;40156;51.080;17.082;2022-12-24T21:15:40;67955.41;;;5.41;nan
54242;BME280;40156;51.080;17.082;2022-12-24T21:18:08;67937.09;;;5.52;nan
54242;BME280;40156;51.080;17.082;2022-12-24T21:20:40;67935.56;;;5.54;nan
54242;BME280;40156;51.080;17.082;2022-12-24T21:23:08;67932.50;;;5.55;nan
54242;BME280;40156;51.080;17.082;2022-12-24T21:25:36;67929.47;;;5.61;nan
54242;BME280;40156;51.080;17.082;2022-12-24T21:28:04;67927.94;;;5.66;nan
54242;BME280;40156;51.080;17.082;2022-12-24T21:30:33;67929.47;;;5.63;nan
54242;BME280;40156;51.080;17.082;2022-12-24T21:33:01;67937.09;;;5.61;nan
54242;BME280;40156;51.080;17.082;2022-12-24T21:35:29;67940.13;;;5.56;nan
54242;BME280;40156;51.080;17.082;2022-12-24T21:37:57;67944.72;;;5.51;nan
54242;BME280;40156;51.080;17.082;2022-12-24T21:40:25;67953.88;;;5.46;nan